Town and Country, Missouri
Current Conditions -  °F | °C
As of 5:54 AM on Monday 24 Nov 2014 (Local Time) from KSUS Reporting Station
Overcast Overcast  
Wind Chill: 30°   Ceiling: 2100
Heat Index: 38°   Visibility: 10mi
Dew Point: 35°   Wind: 13mph
Humidity: 89%   Direction: 250°WSW
Pressure: 29.47"   Gusts: NA
Location:  38.6038°N, 90.5556°W
Report Text: KSUS 241154Z 25011KT 10SM OVC021 03/02 A2947 RMK AO2 SLP980 60036 70127 T00330017 10128 20028 51046
Loading
Personal Weather Stations






























Interactive Weather Map New forecast layout! Learn more

10-Day Weather Forecast

Advertisements
Track Severe Weather on mobile